createdAt,value
2018-12-29T00:00:29.103Z,55.94
2018-12-29T00:03:59.068Z,56.06
2018-12-29T00:07:29.292Z,56.2
2018-12-29T00:10:59.303Z,56.33
2018-12-29T00:14:29.354Z,56.44
2018-12-29T00:17:59.366Z,56.6
2018-12-29T00:21:29.437Z,56.72
2018-12-29T00:24:59.418Z,56.85
2018-12-29T00:28:29.460Z,57.01
2018-12-29T00:31:59.531Z,57.15
2018-12-29T00:35:29.544Z,57.3
2018-12-29T00:38:59.494Z,57.48
2018-12-29T00:42:29.505Z,57.6
2018-12-29T00:45:59.487Z,57.75
2018-12-29T00:49:29.612Z,57.89
2018-12-29T00:52:59.590Z,58.05
2018-12-29T00:56:29.750Z,58.18
2018-12-29T00:59:59.792Z,58.33
2018-12-29T01:03:29.853Z,58.48
2018-12-29T01:06:59.914Z,58.6
2018-12-29T01:10:30.228Z,58.77
2018-12-29T01:14:00.227Z,58.92
2018-12-29T01:17:30.278Z,59.06
2018-12-29T01:21:00.459Z,59.21
2018-12-29T01:24:30.615Z,59.36
2018-12-29T01:28:00.588Z,59.55
2018-12-29T01:31:30.723Z,59.7
2018-12-29T01:35:00.797Z,59.87
2018-12-29T01:38:30.946Z,60.04
2018-12-29T01:42:01.047Z,60.2
2018-12-29T01:45:30.973Z,60.38
2018-12-29T01:49:01.098Z,60.56
2018-12-29T01:52:31.191Z,60.74
2018-12-29T01:56:01.262Z,60.91
2018-12-29T01:59:31.384Z,61.09
2018-12-29T02:00:20.015Z,61.11
2018-12-29T02:03:50.006Z,61.29
2018-12-29T02:07:20.018Z,61.46
2018-12-29T02:10:50.199Z,61.62
2018-12-29T02:14:20.220Z,61.77
2018-12-29T02:17:50.381Z,61.93
2018-12-29T02:21:20.453Z,62.11
2018-12-29T02:24:50.444Z,62.25
2018-12-29T02:28:20.498Z,62.4
2018-12-29T02:31:50.657Z,62.54
2018-12-29T02:35:20.679Z,62.66
2018-12-29T02:38:50.809Z,62.81
2018-12-29T02:42:20.923Z,62.94
2018-12-29T02:45:50.920Z,63.07
2018-12-29T02:49:21.012Z,63.2
2018-12-29T02:52:51.084Z,63.34
2018-12-29T02:56:21.265Z,63.48
2018-12-29T02:59:51.296Z,63.65
2018-12-29T03:03:21.299Z,63.79
2018-12-29T03:06:51.231Z,63.95
2018-12-29T03:10:21.280Z,64.11
2018-12-29T03:13:51.441Z,64.25
2018-12-29T03:17:21.515Z,64.39
2018-12-29T03:20:51.644Z,64.55
2018-12-29T03:24:21.775Z,64.71
2018-12-29T03:27:51.848Z,64.86
2018-12-29T03:31:21.949Z,65.01
2018-12-29T03:34:51.939Z,65.13
2018-12-29T03:38:22.171Z,65.29
2018-12-29T03:41:52.472Z,65.42
2018-12-29T03:45:22.495Z,65.57
2018-12-29T03:48:52.774Z,65.7
2018-12-29T03:52:22.846Z,65.86
2018-12-29T03:55:52.857Z,66.01
2018-12-29T03:59:22.959Z,66.13
2018-12-29T04:00:20.090Z,66.17
2018-12-29T04:03:50.109Z,66.3
2018-12-29T04:07:20.242Z,66.43
2018-12-29T04:10:50.182Z,66.59
2018-12-29T04:14:20.344Z,66.71
2018-12-29T04:17:50.326Z,66.86
2018-12-29T04:21:20.417Z,66.99
2018-12-29T04:24:50.397Z,67.14
2018-12-29T04:28:20.449Z,67.28
2018-12-29T04:31:50.411Z,67.41
2018-12-29T04:35:20.412Z,67.55
2018-12-29T04:38:50.383Z,67.69
2018-12-29T04:42:20.350Z,67.84
2018-12-29T04:45:50.458Z,67.99
2018-12-29T04:49:20.552Z,68.11
2018-12-29T04:52:50.609Z,68.26
2018-12-29T04:56:20.700Z,68.37
2018-12-29T04:59:50.781Z,68.47
2018-12-29T05:03:21.012Z,68.6
2018-12-29T05:06:51.114Z,68.71
2018-12-29T05:10:21.157Z,68.85
2018-12-29T05:13:51.196Z,68.98
2018-12-29T05:17:21.377Z,69.1
2018-12-29T05:20:51.279Z,69.23
2018-12-29T05:24:21.390Z,69.33
2018-12-29T05:27:51.462Z,69.45
2018-12-29T05:31:21.752Z,69.55
2018-12-29T05:34:51.824Z,69.63
2018-12-29T05:38:21.876Z,69.75
2018-12-29T05:41:51.966Z,69.85
2018-12-29T05:45:21.989Z,69.95
2018-12-29T05:48:52.059Z,70.07
2018-12-29T05:52:22.021Z,70.18
2018-12-29T05:55:51.982Z,70.29
2018-12-29T05:59:21.943Z,70.44
2018-12-29T06:00:20.768Z,70.46
2018-12-29T06:03:50.767Z,70.56
2018-12-29T06:07:20.936Z,70.68
2018-12-29T06:10:50.888Z,70.81
2018-12-29T06:14:20.959Z,70.94
2018-12-29T06:17:51.160Z,71.05
2018-12-29T06:21:21.204Z,71.14
2018-12-29T06:24:51.232Z,71.24
2018-12-29T06:28:21.353Z,71.37
2018-12-29T06:31:51.385Z,71.47
2018-12-29T06:35:21.428Z,71.56
2018-12-29T06:38:51.487Z,71.65
2018-12-29T06:42:21.590Z,71.76
2018-12-29T06:45:51.670Z,71.84
2018-12-29T06:49:21.693Z,71.98
2018-12-29T06:52:51.686Z,72.09
2018-12-29T06:56:21.834Z,72.18
2018-12-29T06:59:51.897Z,72.3
2018-12-29T07:03:21.887Z,72.42
2018-12-29T07:06:51.888Z,72.54
2018-12-29T07:10:21.939Z,72.62
2018-12-29T07:13:51.921Z,72.72
2018-12-29T07:17:22.002Z,72.83
2018-12-29T07:20:52.197Z,72.93
2018-12-29T07:24:22.187Z,73.04
2018-12-29T07:27:52.228Z,73.15
2018-12-29T07:31:22.467Z,73.26
2018-12-29T07:34:52.498Z,73.37
2018-12-29T07:38:22.590Z,73.48
2018-12-29T07:41:52.644Z,73.58
2018-12-29T07:45:22.745Z,73.69
2018-12-29T07:48:52.814Z,73.79
2018-12-29T07:52:22.985Z,73.88
2018-12-29T07:55:53.026Z,73.97
2018-12-29T07:59:23.072Z,74.07
2018-12-29T08:00:20.717Z,74.09
2018-12-29T08:03:50.793Z,74.18
2018-12-29T08:07:21.031Z,74.26
2018-12-29T08:10:51.052Z,74.37
2018-12-29T08:14:21.074Z,74.45
2018-12-29T08:17:51.150Z,74.54
2018-12-29T08:21:21.416Z,74.63
2018-12-29T08:24:51.398Z,74.7
2018-12-29T08:28:21.504Z,74.78
2018-12-29T08:31:51.741Z,74.85
2018-12-29T08:35:21.832Z,74.83
2018-12-29T08:38:51.964Z,74.88
2018-12-29T08:42:22.015Z,74.92
2018-12-29T08:45:52.136Z,74.96
2018-12-29T08:49:22.270Z,74.99
2018-12-29T08:52:52.239Z,75.04
2018-12-29T08:56:22.312Z,75.08
2018-12-29T08:59:52.412Z,75.14
2018-12-29T09:03:22.631Z,75.19
2018-12-29T09:06:52.685Z,75.24
2018-12-29T09:10:22.807Z,75.27
2018-12-29T09:13:52.798Z,75.22
2018-12-29T09:17:22.860Z,75.28
2018-12-29T09:20:52.895Z,75.33
2018-12-29T09:24:23.032Z,75.37
2018-12-29T09:27:53.018Z,75.37
2018-12-29T09:31:23.066Z,75.38
2018-12-29T09:34:53.147Z,75.38
2018-12-29T09:38:23.239Z,75.35
2018-12-29T09:41:53.236Z,75.39
2018-12-29T09:45:23.311Z,75.37
2018-12-29T09:48:53.392Z,75.44
2018-12-29T09:52:23.494Z,75.45
2018-12-29T09:55:53.585Z,75.46
2018-12-29T09:59:23.715Z,75.49
2018-12-29T10:00:20.846Z,75.5
2018-12-29T10:03:50.877Z,75.52
2018-12-29T10:07:21.059Z,75.48
2018-12-29T10:10:51.110Z,75.46
2018-12-29T10:14:21.080Z,75.51
2018-12-29T10:17:51.094Z,75.53
2018-12-29T10:21:21.174Z,75.57
2018-12-29T10:24:51.340Z,75.59
2018-12-29T10:28:21.477Z,75.63
2018-12-29T10:31:51.460Z,75.67
2018-12-29T10:35:21.656Z,75.72
2018-12-29T10:38:51.681Z,75.68
2018-12-29T10:42:21.772Z,75.73
2018-12-29T10:45:51.734Z,75.78
2018-12-29T10:49:21.865Z,75.8
2018-12-29T10:52:51.926Z,75.79
2018-12-29T10:56:21.947Z,75.79
2018-12-29T10:59:52.128Z,75.8
2018-12-29T11:03:22.211Z,75.76
2018-12-29T11:06:52.142Z,75.81
2018-12-29T11:10:22.472Z,75.77
2018-12-29T11:13:52.474Z,75.81
2018-12-29T11:17:22.535Z,75.77
2018-12-29T11:20:52.597Z,75.79
2018-12-29T11:24:22.728Z,75.8
2018-12-29T11:27:52.940Z,75.78
2018-12-29T11:31:22.907Z,75.77
2018-12-29T11:34:53.242Z,75.74
2018-12-29T11:38:23.384Z,75.76
2018-12-29T11:41:53.405Z,75.74
2018-12-29T11:45:23.447Z,75.76
2018-12-29T11:48:53.487Z,75.8
2018-12-29T11:52:23.591Z,75.79
2018-12-29T11:55:53.531Z,75.76
2018-12-29T11:59:23.671Z,75.79
2018-12-29T12:00:19.943Z,75.79
2018-12-29T12:03:50.183Z,75.8
2018-12-29T12:07:20.275Z,75.8
2018-12-29T12:10:50.416Z,75.75
2018-12-29T12:14:20.587Z,75.8
2018-12-29T12:17:57.330Z,75.83
2018-12-29T12:21:27.790Z,75.86
2018-12-29T12:24:57.913Z,75.87
2018-12-29T12:28:28.096Z,75.92
2018-12-29T12:31:58.135Z,75.96
2018-12-29T12:35:28.205Z,76
2018-12-29T12:38:58.306Z,76.03
2018-12-29T12:42:28.798Z,76.08
2018-12-29T12:45:58.759Z,76.11
2018-12-29T12:49:28.830Z,76.12
2018-12-29T12:52:58.872Z,76.18
2018-12-29T12:56:28.963Z,76.22
2018-12-29T12:59:59.154Z,76.21
2018-12-29T13:03:29.687Z,76.24
2018-12-29T13:06:59.757Z,76.3
2018-12-29T13:10:29.829Z,76.32
2018-12-29T13:13:59.901Z,76.34
2018-12-29T13:17:30.021Z,76.41
2018-12-29T13:20:59.973Z,76.42
2018-12-29T13:24:30.234Z,76.47
2018-12-29T13:28:00.275Z,76.52
2018-12-29T13:31:30.466Z,76.56
2018-12-29T13:35:00.869Z,76.59
2018-12-29T13:38:30.939Z,76.63
2018-12-29T13:42:00.950Z,76.71
2018-12-29T13:45:31.152Z,76.72
2018-12-29T13:49:01.153Z,76.75
2018-12-29T13:52:31.352Z,76.76
2018-12-29T13:56:01.405Z,76.8
2018-12-29T13:59:31.447Z,76.83
2018-12-29T14:00:20.108Z,76.83
2018-12-29T14:03:50.171Z,76.86
2018-12-29T14:07:20.280Z,76.87
2018-12-29T14:10:50.481Z,76.87
2018-12-29T14:14:20.882Z,76.84
2018-12-29T14:17:50.944Z,76.91
2018-12-29T14:21:21.066Z,76.88
2018-12-29T14:24:51.167Z,76.91
2018-12-29T14:28:21.200Z,76.92
2018-12-29T14:31:51.509Z,76.94
2018-12-29T14:35:21.721Z,76.96
2018-12-29T14:38:51.763Z,76.97
2018-12-29T14:42:21.843Z,76.98
2018-12-29T14:45:51.974Z,76.99
2018-12-29T14:49:22.026Z,77.01
2018-12-29T14:52:52.136Z,76.99
2018-12-29T14:56:22.949Z,77.04
2018-12-29T14:59:52.981Z,77.1
2018-12-29T15:03:23.001Z,77.13
2018-12-29T15:06:53.062Z,77.13
2018-12-29T15:10:23.128Z,77.17
2018-12-29T15:13:53.226Z,77.17
2018-12-29T15:17:23.227Z,77.18
2018-12-29T15:20:53.196Z,77.23
2018-12-29T15:24:23.331Z,77.3
2018-12-29T15:27:53.391Z,77.33
2018-12-29T15:31:23.527Z,77.37
2018-12-29T15:34:53.944Z,77.4
2018-12-29T15:38:24.025Z,77.46
2018-12-29T15:41:54.506Z,77.49
2018-12-29T15:45:24.787Z,77.51
2018-12-29T15:48:54.859Z,77.55
2018-12-29T15:52:25.420Z,77.59
2018-12-29T15:55:55.391Z,77.61
2018-12-29T15:59:25.472Z,77.64
2018-12-29T16:00:20.332Z,77.65
2018-12-29T16:03:50.714Z,77.7
2018-12-29T16:07:20.845Z,77.72
2018-12-29T16:10:50.837Z,77.75
2018-12-29T16:14:20.898Z,77.77
2018-12-29T16:17:51.309Z,77.78
2018-12-29T16:21:21.460Z,77.77
2018-12-29T16:24:51.619Z,77.78
2018-12-29T16:28:21.957Z,77.81
2018-12-29T16:31:52.021Z,77.81
2018-12-29T16:35:22.506Z,77.81
2018-12-29T16:38:52.569Z,77.83
2018-12-29T16:42:22.649Z,77.82
2018-12-29T16:45:52.660Z,77.85
2018-12-29T16:49:22.811Z,77.87
2018-12-29T16:52:52.883Z,77.87
2018-12-29T16:56:22.938Z,77.85
2018-12-29T16:59:52.915Z,77.84
2018-12-29T17:03:23.357Z,77.86
2018-12-29T17:06:53.438Z,77.8
2018-12-29T17:10:23.789Z,77.82
2018-12-29T17:13:53.831Z,77.85
2018-12-29T17:17:24.062Z,77.83
2018-12-29T17:20:54.105Z,77.84
2018-12-29T17:24:24.182Z,77.83
2018-12-29T17:27:54.186Z,77.84
2018-12-29T17:31:24.378Z,77.81
2018-12-29T17:34:54.828Z,77.85
2018-12-29T17:38:25.150Z,77.81
2018-12-29T17:41:55.290Z,77.84
2018-12-29T17:45:25.372Z,77.84
2018-12-29T17:48:55.795Z,77.86
2018-12-29T17:52:25.864Z,77.87
2018-12-29T17:55:56.325Z,77.85
2018-12-29T17:59:26.368Z,77.88
2018-12-29T18:00:20.487Z,77.87
2018-12-29T18:03:50.689Z,77.89
2018-12-29T18:07:20.760Z,77.89
2018-12-29T18:10:50.851Z,77.89
2018-12-29T18:14:21.232Z,77.89
2018-12-29T18:17:51.313Z,77.91
2018-12-29T18:21:21.745Z,77.9
2018-12-29T18:24:51.796Z,77.91
2018-12-29T18:28:21.927Z,77.92
2018-12-29T18:31:51.989Z,77.96
2018-12-29T18:35:22.069Z,77.96
2018-12-29T18:38:52.270Z,78.03
2018-12-29T18:42:22.711Z,78.08
2018-12-29T18:45:52.803Z,78.07
2018-12-29T18:49:23.163Z,78.11
2018-12-29T18:52:53.235Z,78.13
2018-12-29T18:56:23.456Z,78.15
2018-12-29T18:59:53.517Z,78.2
2018-12-29T19:03:23.599Z,78.21
2018-12-29T19:06:53.540Z,78.22
2018-12-29T19:10:23.673Z,78.25
2018-12-29T19:13:53.806Z,78.26
2018-12-29T19:17:23.853Z,78.31
2018-12-29T19:20:54.294Z,78.35
2018-12-29T19:24:24.795Z,78.36
2018-12-29T19:27:54.848Z,78.34
2018-12-29T19:31:25.410Z,78.36
2018-12-29T19:34:55.849Z,78.38
2018-12-29T19:38:26.157Z,78.37
2018-12-29T19:41:56.655Z,78.4
2018-12-29T19:45:27.413Z,78.43
2018-12-29T19:48:58.200Z,78.45
2018-12-29T19:52:28.646Z,78.48
2018-12-29T19:55:58.717Z,78.47
2018-12-29T19:59:28.778Z,78.5
2018-12-29T20:00:20.558Z,78.5
2018-12-29T20:03:50.922Z,78.51
2018-12-29T20:07:20.944Z,78.55
2018-12-29T20:10:51.002Z,78.57
2018-12-29T20:14:21.183Z,78.58
2018-12-29T20:17:51.244Z,78.58
2018-12-29T20:21:21.556Z,78.59
2018-12-29T20:24:51.747Z,78.63
2018-12-29T20:28:21.839Z,78.62
2018-12-29T20:31:51.930Z,78.66
2018-12-29T20:35:22.141Z,78.65
2018-12-29T20:38:52.342Z,78.65
2018-12-29T20:42:22.944Z,78.66
2018-12-29T20:45:53.006Z,78.67
2018-12-29T20:49:23.106Z,78.68
2018-12-29T20:52:53.108Z,78.63
2018-12-29T20:56:23.078Z,78.64
2018-12-29T20:59:53.200Z,78.64
2018-12-29T21:03:23.281Z,78.62
2018-12-29T21:06:53.362Z,78.62
2018-12-29T21:10:23.454Z,78.65
2018-12-29T21:13:53.414Z,78.64
2018-12-29T21:17:23.486Z,78.63
2018-12-29T21:20:53.541Z,78.66
2018-12-29T21:24:25.309Z,78.64
2018-12-29T21:27:55.439Z,78.64
2018-12-29T21:31:25.661Z,78.63
2018-12-29T21:34:55.855Z,78.61
2018-12-29T21:38:26.184Z,78.57
2018-12-29T21:41:56.235Z,78.59
2018-12-29T21:45:26.618Z,78.6
2018-12-29T21:48:56.627Z,78.53
2018-12-29T21:52:26.958Z,78.5
2018-12-29T21:55:56.984Z,78.51
2018-12-29T21:59:27.211Z,78.55
2018-12-29T22:00:20.971Z,78.5
2018-12-29T22:03:51.103Z,78.55
2018-12-29T22:07:21.304Z,78.53
2018-12-29T22:10:51.455Z,78.54
2018-12-29T22:14:21.836Z,78.53
2018-12-29T22:17:52.018Z,78.52
2018-12-29T22:21:22.259Z,78.49
2018-12-29T22:24:52.251Z,78.49
2018-12-29T22:28:22.462Z,78.52
2018-12-29T22:31:52.503Z,78.5
2018-12-29T22:35:22.894Z,78.48
2018-12-29T22:38:52.846Z,78.48
2018-12-29T22:42:23.147Z,78.5
2018-12-29T22:45:53.437Z,78.49
2018-12-29T22:49:23.717Z,78.49
2018-12-29T22:52:53.862Z,78.47
2018-12-29T22:56:24.313Z,78.43
2018-12-29T22:59:54.372Z,78.43
2018-12-29T23:03:24.755Z,78.38
2018-12-29T23:06:54.826Z,78.38
2018-12-29T23:10:25.057Z,78.34
2018-12-29T23:13:55.448Z,78.3
2018-12-29T23:17:25.721Z,78.29
2018-12-29T23:20:55.821Z,78.23
2018-12-29T23:24:26.032Z,78.2
2018-12-29T23:27:56.089Z,78.18
2018-12-29T23:31:26.264Z,78.16
2018-12-29T23:34:56.376Z,78.13
2018-12-29T23:38:26.526Z,78.09
2018-12-29T23:41:56.728Z,78.09
2018-12-29T23:45:26.846Z,78.05
2018-12-29T23:48:57.040Z,78.04
2018-12-29T23:52:27.086Z,77.99
2018-12-29T23:55:57.283Z,77.95
2018-12-29T23:59:27.310Z,77.92
